Time;durP1;ratioP1;P1;durP2;ratioP2;P2;SDS_P1;SDS_P2;PMS_P1;PMS_P2;Temp;Humidity;BMP_temperature;BMP_pressure;BME280_temperature;BME280_humidity;BME280_pressure;Samples;Min_cycle;Max_cycle;Signal;HPM_P1;HPM_P2
2023/12/31 00:00:03;;;;;;;2.88;1.10;;;;;;;13.12;50.32;100126.38;689790;28;1269;-92
2023/12/31 00:00:25;;;;;;;2.08;0.98;;;;;;;13.11;50.18;100113.25;687984;28;1580;-92
2023/12/31 00:00:45;;;;;;;1.70;1.00;;;;;;;13.20;50.35;100129.03;683185;28;1160;-92
2023/12/31 00:01:06;;;;;;;1.60;1.20;;;;;;;13.24;50.08;100129.94;687829;28;1295;-92
2023/12/31 00:01:28;;;;;;;1.80;1.25;;;;;;;13.16;50.01;100122.91;688978;28;1211;-92
2023/12/31 00:01:49;;;;;;;1.90;1.20;;;;;;;13.20;50.09;100123.81;682978;29;1359;-92
2023/12/31 00:02:09;;;;;;;2.40;1.20;;;;;;;13.23;50.20;100120.34;685581;28;1262;-92
2023/12/31 00:02:30;;;;;;;1.80;1.15;;;;;;;13.19;50.13;100121.16;685704;28;1221;-92
2023/12/31 00:02:51;;;;;;;1.90;1.20;;;;;;;13.21;49.99;100124.69;685565;28;1335;-92
2023/12/31 00:03:11;;;;;;;2.35;1.10;;;;;;;13.16;50.11;100112.41;690623;28;1173;-92
2023/12/31 00:03:32;;;;;;;2.30;1.10;;;;;;;13.22;50.13;100127.31;687962;28;1313;-92
2023/12/31 00:03:52;;;;;;;2.47;1.10;;;;;;;13.20;50.43;100117.69;685558;28;1297;-92
2023/12/31 00:04:13;;;;;;;1.40;1.00;;;;;;;13.17;50.29;100126.41;685474;28;1230;-92
2023/12/31 00:04:34;;;;;;;1.60;1.10;;;;;;;13.18;50.28;100111.56;690753;28;1160;-92
2023/12/31 00:04:54;;;;;;;1.20;0.93;;;;;;;13.15;50.51;100108.06;685521;28;1208;-92
2023/12/31 00:05:15;;;;;;;1.30;1.00;;;;;;;13.22;50.07;100115.97;688195;28;1327;-92
2023/12/31 00:05:35;;;;;;;1.30;1.10;;;;;;;13.22;50.02;100110.72;684362;28;1791;-92
2023/12/31 00:05:56;;;;;;;1.47;1.20;;;;;;;13.25;50.09;100118.59;682715;28;1295;-92
2023/12/31 00:06:17;;;;;;;1.47;1.10;;;;;;;13.23;50.27;100112.47;682851;28;1284;-93
2023/12/31 00:06:38;;;;;;;1.50;1.02;;;;;;;13.22;49.98;100103.72;685574;28;1309;-92
2023/12/31 00:06:58;;;;;;;1.90;1.20;;;;;;;13.23;50.00;100107.22;685332;28;1252;-92
2023/12/31 00:07:19;;;;;;;2.20;1.20;;;;;;;13.25;50.03;100102.88;690809;28;1275;-92
2023/12/31 00:07:40;;;;;;;2.38;1.30;;;;;;;13.25;50.19;100105.50;690839;28;1242;-92
2023/12/31 00:08:01;;;;;;;3.63;1.10;;;;;;;13.29;50.17;100120.38;687239;28;1184;-92
2023/12/31 00:08:21;;;;;;;3.13;1.10;;;;;;;13.30;50.01;100114.25;690708;28;1162;-92
2023/12/31 00:08:42;;;;;;;2.70;0.93;;;;;;;13.26;50.23;100107.25;693614;28;1244;-92
2023/12/31 00:09:03;;;;;;;1.20;0.97;;;;;;;13.25;49.96;100102.88;691094;28;1176;-92
2023/12/31 00:09:23;;;;;;;1.58;1.05;;;;;;;13.27;49.82;100103.78;685471;28;1317;-92
2023/12/31 00:09:44;;;;;;;1.90;1.10;;;;;;;13.25;50.11;100100.25;688312;28;1195;-92
2023/12/31 00:10:05;;;;;;;1.80;1.10;;;;;;;13.27;49.96;100101.16;690770;28;1133;-92
2023/12/31 00:10:26;;;;;;;1.60;1.10;;;;;;;13.22;50.29;100095.88;690501;28;1306;-92
2023/12/31 00:10:47;;;;;;;1.25;1.10;;;;;;;13.30;50.14;100104.63;688176;28;1287;-92
2023/12/31 00:11:09;;;;;;;1.30;1.10;;;;;;;13.24;50.12;100096.78;690697;28;1347;-92
2023/12/31 00:11:30;;;;;;;1.65;1.40;;;;;;;13.26;50.07;100095.03;688158;28;1919;-92
2023/12/31 00:11:51;;;;;;;1.83;1.50;;;;;;;13.26;50.23;100096.75;688592;28;1223;-92
2023/12/31 00:12:11;;;;;;;1.50;1.30;;;;;;;13.28;50.02;100095.03;688123;28;1137;-90
2023/12/31 00:12:32;;;;;;;1.30;1.10;;;;;;;13.21;50.38;100098.50;693595;28;1097;-92
2023/12/31 00:12:52;;;;;;;1.15;1.00;;;;;;;13.16;50.25;100091.47;687946;28;1229;-92
2023/12/31 00:13:13;;;;;;;1.30;1.10;;;;;;;13.21;50.79;100095.88;687824;28;1239;-92
2023/12/31 00:13:34;;;;;;;1.20;1.10;;;;;;;13.24;50.18;100102.00;688219;28;1345;-92
2023/12/31 00:13:54;;;;;;;1.92;1.17;;;;;;;13.26;50.38;100092.41;687841;28;1422;-92
2023/12/31 00:14:15;;;;;;;1.90;1.10;;;;;;;13.30;50.54;100104.63;687995;28;1344;-92
2023/12/31 00:14:37;;;;;;;2.00;1.10;;;;;;;13.28;50.58;100089.81;685506;28;1332;-92
2023/12/31 00:14:58;;;;;;;1.58;1.20;;;;;;;13.33;50.53;100095.06;685092;28;1283;-92
2023/12/31 00:15:18;;;;;;;1.65;1.20;;;;;;;13.33;50.24;100089.84;690787;28;1045;-92
2023/12/31 00:15:39;;;;;;;1.90;1.20;;;;;;;13.33;50.38;100087.22;688112;28;1271;-92
2023/12/31 00:16:00;;;;;;;2.00;1.17;;;;;;;13.34;50.27;100096.81;689595;28;1148;-92
2023/12/31 00:16:21;;;;;;;2.42;1.30;;;;;;;13.32;50.32;100096.81;688182;28;1245;-92
2023/12/31 00:16:41;;;;;;;1.98;1.10;;;;;;;13.33;50.29;100088.06;685474;28;1431;-91
2023/12/31 00:17:02;;;;;;;1.90;1.10;;;;;;;13.33;50.43;100100.31;688649;28;1273;-92
2023/12/31 00:17:23;;;;;;;1.35;1.00;;;;;;;13.20;50.71;100087.13;685707;28;1186;-92
2023/12/31 00:17:43;;;;;;;1.67;1.20;;;;;;;13.23;50.55;100086.28;682988;29;1241;-92
2023/12/31 00:18:04;;;;;;;1.50;1.10;;;;;;;13.28;50.66;100095.03;684836;28;1283;-92
2023/12/31 00:18:24;;;;;;;1.45;1.10;;;;;;;13.25;50.40;100098.53;685531;28;1181;-92
2023/12/31 00:18:45;;;;;;;1.30;1.00;;;;;;;13.22;50.54;100092.38;687937;28;1193;-92
2023/12/31 00:19:06;;;;;;;2.70;1.00;;;;;;;13.24;50.73;100093.25;687753;28;1257;-92
2023/12/31 00:19:26;;;;;;;3.00;0.95;;;;;;;13.25;50.38;100089.78;682913;29;1321;-91
2023/12/31 00:19:47;;;;;;;3.33;0.90;;;;;;;13.22;50.49;100081.91;688107;28;1161;-92
2023/12/31 00:20:08;;;;;;;2.55;1.05;;;;;;;13.21;50.39;100085.41;687981;28;1229;-92
2023/12/31 00:20:29;;;;;;;2.90;1.25;;;;;;;13.15;50.54;100084.47;688085;28;1205;-91
2023/12/31 00:20:50;;;;;;;2.70;1.40;;;;;;;13.16;50.25;100074.88;690497;28;1261;-92
2023/12/31 00:21:10;;;;;;;1.95;1.23;;;;;;;13.10;50.21;100080.94;685434;28;1199;-91
2023/12/31 00:21:31;;;;;;;1.57;1.17;;;;;;;13.11;50.23;100082.72;696359;28;1160;-92
2023/12/31 00:21:51;;;;;;;1.70;1.03;;;;;;;13.03;50.38;100079.16;693328;28;1225;-92
2023/12/31 00:22:12;;;;;;;2.10;1.10;;;;;;;13.02;50.46;100072.16;690979;28;1195;-92
2023/12/31 00:22:33;;;;;;;2.33;1.03;;;;;;;12.96;50.25;100073.00;685481;28;1186;-92
2023/12/31 00:22:53;;;;;;;2.05;1.00;;;;;;;12.94;50.55;100073.84;696217;28;1244;-92
2023/12/31 00:23:14;;;;;;;1.73;1.08;;;;;;;12.94;50.44;100084.31;693175;28;1303;-92
2023/12/31 00:23:35;;;;;;;1.90;1.20;;;;;;;12.92;50.54;100083.41;690911;28;1245;-93
2023/12/31 00:23:56;;;;;;;1.98;1.30;;;;;;;12.80;50.54;100066.75;690752;28;1230;-92
2023/12/31 00:24:17;;;;;;;1.73;1.23;;;;;;;12.73;50.61;100070.19;691465;28;1697;-92
2023/12/31 00:24:37;;;;;;;1.23;1.03;;;;;;;12.69;50.79;100065.78;688042;28;1280;-92
2023/12/31 00:24:58;;;;;;;1.50;1.10;;;;;;;12.70;50.86;100067.53;683906;28;1266;-92
2023/12/31 00:25:19;;;;;;;1.50;1.10;;;;;;;12.70;50.62;100071.03;690864;28;1210;-92
2023/12/31 00:25:39;;;;;;;1.30;1.10;;;;;;;12.69;50.60;100066.69;692022;28;1227;-92
2023/12/31 00:26:00;;;;;;;1.80;1.00;;;;;;;12.68;51.11;100066.66;690758;28;1210;-92
2023/12/31 00:26:20;;;;;;;1.90;1.02;;;;;;;12.74;51.31;100078.03;693481;28;1245;-92
2023/12/31 00:26:41;;;;;;;2.00;1.00;;;;;;;12.72;51.08;100079.78;685623;28;1180;-92
2023/12/31 00:27:05;;;;;;;1.40;0.90;;;;;;;12.66;50.87;100073.63;690687;28;1464;-92
2023/12/31 00:27:26;;;;;;;1.35;1.02;;;;;;;12.60;50.94;100062.22;690562;28;1277;-92
2023/12/31 00:27:47;;;;;;;1.30;1.10;;;;;;;12.61;51.12;100061.34;690722;28;1304;-91
2023/12/31 00:28:08;;;;;;;1.30;1.10;;;;;;;12.60;51.04;100064.84;685353;28;1169;-92
2023/12/31 00:28:28;;;;;;;1.35;1.00;;;;;;;12.60;50.99;100067.47;687842;28;1523;-92
2023/12/31 00:28:49;;;;;;;1.20;0.90;;;;;;;12.61;51.17;100068.34;685416;28;1285;-92
2023/12/31 00:29:10;;;;;;;1.25;0.98;;;;;;;12.55;50.93;100055.22;688177;28;1415;-92
2023/12/31 00:29:32;;;;;;;1.27;1.00;;;;;;;12.54;51.05;100056.94;690797;28;1265;-92
2023/12/31 00:29:54;;;;;;;1.45;1.00;;;;;;;12.56;50.98;100067.44;688048;28;1429;-92
2023/12/31 00:30:14;;;;;;;1.38;0.90;;;;;;;12.51;51.05;100056.91;693396;28;1379;-93
2023/12/31 00:30:35;;;;;;;2.25;1.00;;;;;;;12.45;50.97;100051.63;690801;28;1349;-92
2023/12/31 00:30:56;;;;;;;2.30;1.10;;;;;;;12.42;51.16;100054.22;685432;28;1249;-92
2023/12/31 00:31:18;;;;;;;2.42;1.10;;;;;;;12.44;51.12;100053.38;693443;28;1177;-92
2023/12/31 00:31:39;;;;;;;2.10;1.10;;;;;;;12.36;51.20;100043.72;685507;28;1914;-92
2023/12/31 00:31:59;;;;;;;1.90;1.10;;;;;;;12.39;51.08;100056.81;684156;28;1188;-91
2023/12/31 00:32:20;;;;;;;1.55;1.02;;;;;;;12.33;51.46;100042.81;693376;28;1324;-91
2023/12/31 00:32:41;;;;;;;1.10;0.90;;;;;;;12.28;51.36;100034.03;685599;28;1271;-92
2023/12/31 00:33:01;;;;;;;1.10;0.88;;;;;;;12.35;51.20;100048.03;690671;28;1243;-92
2023/12/31 00:33:22;;;;;;;1.90;0.90;;;;;;;12.25;51.04;100039.25;690712;28;1129;-92
2023/12/31 00:33:43;;;;;;;2.03;1.05;;;;;;;12.29;51.46;100048.88;687914;28;1196;-92
2023/12/31 00:34:03;;;;;;;2.08;1.10;;;;;;;12.25;51.44;100036.66;690007;28;1193;-92
2023/12/31 00:34:25;;;;;;;1.50;1.10;;;;;;;12.25;51.37;100041.88;688087;28;1222;-91
2023/12/31 00:34:46;;;;;;;1.35;1.08;;;;;;;12.21;51.38;100037.47;690807;28;1260;-92
2023/12/31 00:35:06;;;;;;;1.23;1.00;;;;;;;12.17;51.32;100033.94;690368;28;1289;-92
2023/12/31 00:35:27;;;;;;;1.40;1.10;;;;;;;12.14;51.56;100027.81;688014;28;1110;-92
2023/12/31 00:35:47;;;;;;;1.80;1.20;;;;;;;12.14;51.35;100033.94;682797;28;1458;-92
2023/12/31 00:36:08;;;;;;;3.40;1.35;;;;;;;12.12;51.58;100035.66;682843;29;1265;-92
2023/12/31 00:36:31;;;;;;;3.28;1.20;;;;;;;12.11;51.73;100039.09;685540;28;1300;-92
2023/12/31 00:36:51;;;;;;;3.28;1.30;;;;;;;12.10;51.42;100033.88;687805;28;1332;-92
2023/12/31 00:37:12;;;;;;;3.05;1.30;;;;;;;12.09;51.60;100034.75;687881;28;1382;-92
2023/12/31 00:37:32;;;;;;;4.88;1.42;;;;;;;12.09;51.57;100038.22;693502;28;1385;-92
2023/12/31 00:37:53;;;;;;;4.10;1.40;;;;;;;12.02;51.63;100025.94;691256;28;1156;-92
2023/12/31 00:38:13;;;;;;;3.60;1.30;;;;;;;12.04;51.59;100032.94;690568;28;1236;-91
2023/12/31 00:38:34;;;;;;;1.67;1.20;;;;;;;12.00;51.74;100025.94;690739;28;1283;-92
2023/12/31 00:39:22;;;;;;;1.70;1.27;;;;;;;12.02;51.81;100032.06;690763;28;1249;-92
2023/12/31 00:40:01;;;;;;;1.60;1.08;;;;;;;12.01;51.67;100032.03;689175;28;822;-91
2023/12/31 00:40:43;;;;;;;1.60;1.27;;;;;;;11.99;51.65;100039.00;688514;28;1133;-92
2023/12/31 00:41:03;;;;;;;2.30;1.30;;;;;;;11.90;51.95;100013.63;689741;28;1305;-92
2023/12/31 00:41:24;;;;;;;2.20;1.30;;;;;;;11.93;51.82;100029.38;685564;28;1228;-92
2023/12/31 00:41:46;;;;;;;1.75;1.15;;;;;;;11.86;51.79;100019.69;688108;28;1241;-91
2023/12/31 00:42:06;;;;;;;1.52;1.13;;;;;;;11.89;51.90;100025.84;688047;28;1266;-91
2023/12/31 00:42:27;;;;;;;1.33;1.02;;;;;;;11.84;51.90;100018.78;691057;28;1296;-92
2023/12/31 00:42:48;;;;;;;1.35;1.10;;;;;;;11.84;52.02;100011.81;690769;28;1211;-92
2023/12/31 00:43:34;;;;;;;1.33;1.15;;;;;;;11.86;52.04;100022.31;685234;28;1290;-92
2023/12/31 00:43:55;;;;;;;1.67;1.27;;;;;;;11.78;52.21;100007.41;689693;28;1293;-91
2023/12/31 00:44:17;;;;;;;1.60;1.20;;;;;;;11.74;52.29;100003.00;684937;28;1263;-92
2023/12/31 00:44:37;;;;;;;2.13;1.33;;;;;;;11.72;52.24;100002.13;690864;28;1279;-92
2023/12/31 00:44:58;;;;;;;2.40;1.47;;;;;;;11.73;52.20;100006.47;693419;28;1176;-92
2023/12/31 00:45:19;;;;;;;2.03;1.40;;;;;;;11.78;52.05;100015.25;685373;28;1204;-92
2023/12/31 00:45:39;;;;;;;1.25;1.13;;;;;;;11.74;52.21;100007.38;685587;28;1232;-91
2023/12/31 00:46:00;;;;;;;1.20;1.10;;;;;;;11.74;52.27;100012.59;686404;28;1303;-92
2023/12/31 00:46:21;;;;;;;1.20;1.10;;;;;;;11.76;52.14;100021.31;687115;28;1207;-92
2023/12/31 00:46:42;;;;;;;1.20;1.10;;;;;;;11.74;52.07;100008.22;687994;28;1356;-92
2023/12/31 00:47:02;;;;;;;1.20;1.10;;;;;;;11.76;52.44;100011.75;690765;28;1215;-92
2023/12/31 00:47:24;;;;;;;1.10;1.00;;;;;;;11.79;52.23;100014.41;688106;28;1431;-92
2023/12/31 00:47:45;;;;;;;1.40;1.10;;;;;;;11.72;52.08;100009.97;690811;28;1243;-91
2023/12/31 00:48:05;;;;;;;1.40;1.10;;;;;;;11.76;52.16;100017.00;687726;28;1323;-93
2023/12/31 00:48:26;;;;;;;1.60;1.20;;;;;;;11.74;52.35;100008.22;682810;29;1207;-91
2023/12/31 00:48:47;;;;;;;1.70;1.20;;;;;;;11.75;52.50;100009.97;687917;28;1770;-92
2023/12/31 00:49:07;;;;;;;1.80;1.30;;;;;;;11.77;52.42;100007.38;687595;28;1264;-92
2023/12/31 00:49:28;;;;;;;1.60;1.30;;;;;;;11.73;52.19;100003.00;687940;28;1300;-92
2023/12/31 00:49:49;;;;;;;1.73;1.23;;;;;;;11.77;52.35;100010.91;685585;28;1157;-91
2023/12/31 00:50:10;;;;;;;1.90;1.38;;;;;;;11.76;52.47;100011.75;685297;28;1157;-92
2023/12/31 00:50:32;;;;;;;1.95;1.30;;;;;;;11.73;52.23;100003.88;685324;28;1256;-92
2023/12/31 00:50:52;;;;;;;1.67;1.20;;;;;;;11.70;52.28;100000.34;685266;28;1243;-92
2023/12/31 00:51:13;;;;;;;1.70;1.20;;;;;;;11.71;52.36;100010.81;687571;28;1686;-92
2023/12/31 00:51:33;;;;;;;1.92;1.30;;;;;;;11.73;52.57;100006.47;689386;28;1891;-92
2023/12/31 00:51:54;;;;;;;2.30;1.42;;;;;;;11.70;52.33;99996.00;683205;28;1155;-92
2023/12/31 00:52:15;;;;;;;2.50;1.50;;;;;;;11.68;52.71;100000.31;685268;28;1310;-92
2023/12/31 00:52:35;;;;;;;2.30;1.40;;;;;;;11.70;52.44;100001.22;685429;28;1142;-93
2023/12/31 00:52:56;;;;;;;2.10;1.30;;;;;;;11.70;52.62;100001.22;688027;28;1280;-92
2023/12/31 00:53:16;;;;;;;2.30;1.40;;;;;;;11.70;52.45;100003.84;690346;28;1214;-90
2023/12/31 00:53:37;;;;;;;2.30;1.30;;;;;;;11.75;52.15;100009.97;691490;28;1630;-92
2023/12/31 00:53:58;;;;;;;2.33;1.40;;;;;;;11.74;52.28;100016.06;694976;28;1250;-92
2023/12/31 00:54:18;;;;;;;1.83;1.20;;;;;;;11.69;52.44;100009.94;690338;28;1214;-92
2023/12/31 00:54:40;;;;;;;1.80;1.30;;;;;;;11.68;52.19;100013.38;685700;28;1776;-91
2023/12/31 00:55:01;;;;;;;1.35;1.13;;;;;;;11.74;52.55;100018.69;683974;28;1104;-92
2023/12/31 00:55:21;;;;;;;1.30;1.02;;;;;;;11.67;52.26;100003.78;693298;28;1162;-92
2023/12/31 00:55:43;;;;;;;1.50;1.03;;;;;;;11.67;52.27;100001.19;687721;28;1474;-92
2023/12/31 00:56:04;;;;;;;1.63;1.20;;;;;;;11.66;52.68;100002.03;685281;28;1239;-92
2023/12/31 00:56:25;;;;;;;1.88;1.30;;;;;;;11.68;52.15;100005.53;687703;28;1261;-91
2023/12/31 00:56:45;;;;;;;4.15;1.45;;;;;;;11.69;52.27;100002.09;685407;28;1203;-92
2023/12/31 00:57:06;;;;;;;4.20;1.30;;;;;;;11.66;52.35;99994.19;687183;28;1408;-91
2023/12/31 00:57:29;;;;;;;3.37;1.17;;;;;;;11.67;52.42;100002.94;689843;28;1764;-92
2023/12/31 00:57:50;;;;;;;1.80;1.10;;;;;;;11.67;52.34;99995.94;688188;28;1371;-91
2023/12/31 00:58:11;;;;;;;2.03;1.20;;;;;;;11.69;52.08;99999.47;690761;28;1343;-92
2023/12/31 00:58:31;;;;;;;1.90;1.30;;;;;;;11.63;52.64;99994.16;688043;28;1247;-92
2023/12/31 00:58:52;;;;;;;2.17;1.40;;;;;;;11.59;52.47;99997.56;688235;28;1192;-92
2023/12/31 00:59:13;;;;;;;2.20;1.30;;;;;;;11.52;52.44;99984.47;690714;28;1391;-92
2023/12/31 00:59:33;;;;;;;2.40;1.23;;;;;;;11.61;52.50;99995.88;685406;28;1225;-91
2023/12/31 00:59:54;;;;;;;2.40;1.40;;;;;;;11.61;52.66;99990.66;687997;28;1228;-92
2023/12/31 01:00:15;;;;;;;2.60;1.50;;;;;;;11.64;52.48;99995.91;685221;28;1281;-92
2023/12/31 01:00:36;;;;;;;2.60;1.40;;;;;;;11.59;52.65;99981.88;687840;28;1130;-92
2023/12/31 01:00:57;;;;;;;2.80;1.30;;;;;;;11.63;52.53;99988.91;687921;28;1273;-92
2023/12/31 01:01:17;;;;;;;1.90;1.20;;;;;;;11.60;52.38;99984.53;684867;28;1730;-92
2023/12/31 01:01:38;;;;;;;1.90;1.38;;;;;;;11.62;52.29;99984.56;689195;28;1742;-93
2023/12/31 01:01:58;;;;;;;1.30;1.20;;;;;;;11.64;52.32;99995.91;688822;28;1304;-92
2023/12/31 01:02:19;;;;;;;1.30;1.10;;;;;;;11.63;52.59;99988.91;687705;28;1276;-92
2023/12/31 01:02:40;;;;;;;1.40;1.10;;;;;;;11.62;52.21;99997.63;690642;28;1277;-92
2023/12/31 01:03:00;;;;;;;2.08;1.10;;;;;;;11.65;52.53;99997.69;691949;28;1309;-92
2023/12/31 01:03:21;;;;;;;2.53;1.23;;;;;;;11.68;52.44;99995.09;690300;28;1148;-92
2023/12/31 01:03:41;;;;;;;2.40;1.30;;;;;;;11.66;52.63;99991.59;690539;28;1239;-92
2023/12/31 01:04:02;;;;;;;3.80;1.40;;;;;;;11.64;52.69;99991.56;690443;28;1221;-92
2023/12/31 01:04:23;;;;;;;3.45;1.30;;;;;;;11.70;52.37;99997.72;690551;28;1151;-92
2023/12/31 01:04:44;;;;;;;3.70;1.20;;;;;;;11.66;52.54;99991.59;687631;28;1664;-92
2023/12/31 01:05:05;;;;;;;1.73;1.10;;;;;;;11.71;52.63;100002.97;690305;28;1291;-92
2023/12/31 01:05:25;;;;;;;1.48;1.02;;;;;;;11.73;52.77;100005.63;687966;28;1153;-92
2023/12/31 01:05:46;;;;;;;1.30;1.10;;;;;;;11.70;52.68;99998.63;685414;28;1314;-92
2023/12/31 01:06:07;;;;;;;1.33;1.10;;;;;;;11.75;52.42;100003.88;685238;28;1304;-92
2023/12/31 01:06:28;;;;;;;1.20;1.00;;;;;;;11.74;52.59;100003.00;687903;28;1434;-91
2023/12/31 01:06:48;;;;;;;1.40;1.10;;;;;;;11.76;52.75;99995.19;687248;28;1253;-92
2023/12/31 01:07:09;;;;;;;1.40;1.20;;;;;;;11.81;52.57;99990.91;687900;28;1134;-92
2023/12/31 01:07:30;;;;;;;1.60;1.33;;;;;;;11.85;52.41;99999.66;693325;28;1207;-92
2023/12/31 01:07:50;;;;;;;2.50;1.40;;;;;;;11.86;52.47;99996.16;685036;28;1295;-92
2023/12/31 01:08:11;;;;;;;2.93;1.50;;;;;;;11.87;52.25;99990.94;685062;28;1343;-91
2023/12/31 01:08:32;;;;;;;3.47;1.67;;;;;;;11.91;52.01;100000.56;690223;28;1693;-92
2023/12/31 01:08:54;;;;;;;2.45;1.50;;;;;;;11.79;52.15;99976.91;690220;28;1375;-92
2023/12/31 01:09:15;;;;;;;2.30;1.70;;;;;;;11.90;52.14;99997.94;687970;28;1200;-92
2023/12/31 01:09:36;;;;;;;3.70;1.60;;;;;;;11.85;52.42;99991.81;690643;28;1308;-92
2023/12/31 01:09:56;;;;;;;3.63;1.50;;;;;;;11.81;52.28;99987.38;687757;28;1226;-92
2023/12/31 01:10:17;;;;;;;3.72;1.40;;;;;;;11.82;52.34;99990.03;690440;28;1226;-92
2023/12/31 01:10:38;;;;;;;1.80;1.30;;;;;;;11.76;52.62;99988.25;687925;28;1281;-91
2023/12/31 01:10:59;;;;;;;1.67;1.33;;;;;;;11.75;52.87;99996.91;685257;28;1207;-92
2023/12/31 01:11:20;;;;;;;1.60;1.40;;;;;;;11.84;53.12;99987.41;687838;28;1178;-92
2023/12/31 01:11:41;;;;;;;1.83;1.50;;;;;;;11.93;52.86;100000.59;685274;28;1910;-92
2023/12/31 01:12:02;;;;;;;2.70;1.43;;;;;;;11.98;52.98;99998.88;686714;28;1184;-92
2023/12/31 01:12:23;;;;;;;3.05;1.30;;;;;;;12.00;52.66;99993.69;688039;28;1305;-93
2023/12/31 01:12:43;;;;;;;3.23;1.30;;;;;;;11.98;52.97;99975.34;688534;28;1215;-92
2023/12/31 01:13:04;;;;;;;2.30;1.40;;;;;;;12.12;52.88;100000.78;689416;28;1216;-91
2023/12/31 01:13:25;;;;;;;2.30;1.30;;;;;;;12.18;52.53;100000.81;685185;28;1228;-92
2023/12/31 01:13:46;;;;;;;2.47;1.30;;;;;;;12.04;52.44;99996.34;687979;28;1217;-92
2023/12/31 01:14:06;;;;;;;2.53;1.23;;;;;;;12.12;52.41;99993.81;687187;28;1349;-92
2023/12/31 01:14:27;;;;;;;1.73;1.20;;;;;;;12.18;52.58;100011.28;685259;28;1278;-93
2023/12/31 01:14:48;;;;;;;2.60;1.30;;;;;;;12.16;52.80;99999.94;686753;28;1327;-92
2023/12/31 01:15:09;;;;;;;2.70;1.40;;;;;;;12.16;52.76;100006.03;686485;28;1321;-92
2023/12/31 01:15:30;;;;;;;2.63;1.42;;;;;;;12.07;52.97;99991.13;688138;28;1221;-91
2023/12/31 01:15:50;;;;;;;1.88;1.58;;;;;;;12.07;52.96;99980.66;690156;28;1277;-92
2023/12/31 01:16:12;;;;;;;1.70;1.60;;;;;;;12.22;52.84;99978.19;688820;28;1381;-93
2023/12/31 01:16:32;;;;;;;2.10;1.60;;;;;;;12.24;52.66;99982.59;690529;28;1296;-92
2023/12/31 01:16:53;;;;;;;2.00;1.40;;;;;;;12.21;53.09;99982.53;687785;28;1260;-92
2023/12/31 01:17:14;;;;;;;3.73;1.50;;;;;;;12.28;52.98;99989.56;690596;28;1262;-92
2023/12/31 01:17:34;;;;;;;3.50;1.50;;;;;;;12.31;52.59;99984.34;690865;28;1300;-92
2023/12/31 01:17:55;;;;;;;3.20;1.52;;;;;;;12.30;52.71;99976.50;687944;28;1491;-92
2023/12/31 01:18:15;;;;;;;1.70;1.40;;;;;;;12.31;53.03;99984.34;690788;28;1162;-92
2023/12/31 01:18:36;;;;;;;1.70;1.40;;;;;;;12.29;52.70;99980.00;690808;28;1207;-92
2023/12/31 01:18:57;;;;;;;2.22;1.60;;;;;;;12.32;52.96;99983.50;685149;28;1354;-92
2023/12/31 01:19:17;;;;;;;2.40;1.70;;;;;;;12.32;52.77;99969.53;685128;28;1400;-91
2023/12/31 01:19:38;;;;;;;2.63;1.80;;;;;;;12.33;52.65;99972.19;685171;28;1200;-92
2023/12/31 01:19:59;;;;;;;2.22;1.70;;;;;;;12.38;52.73;99974.84;686127;28;1164;-92
2023/12/31 01:20:19;;;;;;;2.22;1.63;;;;;;;12.39;52.49;99973.06;682404;28;1197;-92
2023/12/31 01:20:40;;;;;;;1.97;1.57;;;;;;;12.36;52.69;99965.22;688010;28;1133;-93
2023/12/31 01:21:02;;;;;;;2.00;1.60;;;;;;;12.39;52.54;99973.06;691912;28;1153;-92
2023/12/31 01:21:23;;;;;;;2.00;1.60;;;;;;;12.42;52.16;99971.34;687986;28;1400;-92
2023/12/31 01:21:43;;;;;;;2.13;1.50;;;;;;;12.40;52.44;99972.25;690823;28;1666;-91
2023/12/31 01:22:04;;;;;;;2.50;1.60;;;;;;;12.41;52.49;99963.53;690560;28;1256;-92
2023/12/31 01:22:24;;;;;;;2.27;1.60;;;;;;;12.42;52.24;99960.03;687888;28;1289;-92
2023/12/31 01:22:45;;;;;;;3.20;1.70;;;;;;;12.44;51.98;99966.16;688081;28;1238;-92
2023/12/31 01:23:06;;;;;;;3.30;1.70;;;;;;;12.43;52.36;99964.41;684882;28;1212;-92
2023/12/31 01:23:26;;;;;;;3.40;1.70;;;;;;;12.37;52.18;99956.50;688066;28;1221;-92
2023/12/31 01:23:47;;;;;;;2.50;1.80;;;;;;;12.37;52.11;99960.00;687864;28;1267;-92
2023/12/31 01:24:08;;;;;;;2.40;1.80;;;;;;;12.34;52.25;99963.47;685495;28;1298;-92
2023/12/31 01:24:29;;;;;;;2.30;1.70;;;;;;;12.34;52.42;99947.78;682684;28;1276;-92
2023/12/31 01:24:50;;;;;;;2.38;1.60;;;;;;;12.40;52.58;99960.00;686055;28;1490;-92
2023/12/31 01:25:11;;;;;;;2.60;1.80;;;;;;;12.31;52.60;99947.72;687678;28;1336;-92
2023/12/31 01:25:32;;;;;;;2.70;1.90;;;;;;;12.35;52.54;99938.16;687835;28;1217;-92
2023/12/31 01:25:52;;;;;;;2.77;1.90;;;;;;;12.45;52.54;99955.69;693342;28;1313;-92
2023/12/31 01:26:13;;;;;;;2.70;1.70;;;;;;;12.45;52.34;99955.69;688013;28;1302;-92
2023/12/31 01:26:34;;;;;;;3.60;1.85;;;;;;;12.40;52.32;99946.06;688101;28;1278;-92
2023/12/31 01:26:55;;;;;;;2.72;1.67;;;;;;;12.42;52.42;99953.03;690759;28;1294;-93
2023/12/31 01:27:15;;;;;;;2.80;1.80;;;;;;;12.37;52.59;99954.78;696520;28;1428;-92
2023/12/31 01:27:36;;;;;;;1.80;1.60;;;;;;;12.37;52.53;99943.41;688645;28;1273;-93
2023/12/31 01:27:57;;;;;;;1.70;1.60;;;;;;;12.33;52.43;99938.19;683563;28;1425;-92
2023/12/31 01:28:18;;;;;;;1.58;1.48;;;;;;;12.31;52.94;99946.88;685848;28;1221;-93
2023/12/31 01:28:39;;;;;;;1.50;1.40;;;;;;;12.32;52.87;99933.81;688589;28;1261;-92
2023/12/31 01:28:59;;;;;;;1.60;1.50;;;;;;;12.41;52.96;99947.81;687593;28;1325;-92
2023/12/31 01:29:20;;;;;;;1.88;1.55;;;;;;;12.44;52.81;99945.22;691003;28;1274;-92
2023/12/31 01:29:41;;;;;;;1.90;1.50;;;;;;;12.48;52.70;99947.00;691123;28;1301;-91
2023/12/31 01:30:02;;;;;;;1.97;1.53;;;;;;;12.47;52.73;99943.50;691009;28;1176;-93
2023/12/31 01:30:23;;;;;;;2.60;1.65;;;;;;;12.38;52.48;99932.97;685679;28;1528;-92
2023/12/31 01:30:44;;;;;;;3.20;1.95;;;;;;;12.45;52.51;99940.00;685859;28;1432;-92
2023/12/31 01:31:05;;;;;;;3.58;1.88;;;;;;;12.44;52.39;99934.75;691827;28;1296;-92
2023/12/31 01:31:25;;;;;;;2.95;1.92;;;;;;;12.48;52.47;99949.63;686313;28;1918;-91
2023/12/31 01:31:46;;;;;;;2.30;1.70;;;;;;;12.42;52.40;99941.72;691274;28;1196;-92
2023/12/31 01:32:07;;;;;;;8.55;2.00;;;;;;;12.50;52.22;99958.34;685919;28;1362;-93
2023/12/31 01:32:28;;;;;;;8.40;1.70;;;;;;;12.42;52.31;99945.19;688492;28;1213;-92
2023/12/31 01:32:50;;;;;;;8.70;1.85;;;;;;;12.41;52.39;99940.84;683220;28;1344;-92
2023/12/31 01:33:10;;;;;;;2.03;1.70;;;;;;;12.43;52.43;99951.31;687747;28;1432;-92
2023/12/31 01:33:31;;;;;;;3.58;1.80;;;;;;;12.48;52.23;99955.72;686613;28;1151;-92
2023/12/31 01:33:52;;;;;;;3.97;1.70;;;;;;;12.43;52.16;99941.72;690729;28;1230;-92
2023/12/31 01:34:13;;;;;;;3.90;1.67;;;;;;;12.44;52.04;99953.94;685803;28;1244;-92
2023/12/31 01:34:33;;;;;;;1.80;1.57;;;;;;;12.36;52.27;99939.94;688759;28;1663;-92
2023/12/31 01:34:58;;;;;;;3.95;1.60;;;;;;;12.42;52.17;99944.34;683417;28;1281;-92
2023/12/31 01:35:18;;;;;;;4.88;1.73;;;;;;;12.47;52.42;99950.47;685803;28;1332;-92
2023/12/31 01:35:42;;;;;;;5.80;1.90;;;;;;;12.42;52.34;99944.34;688565;28;1232;-92
2023/12/31 01:36:12;;;;;;;3.80;1.90;;;;;;;12.39;52.30;99946.91;688217;28;1385;-92
2023/12/31 01:36:33;;;;;;;2.40;1.70;;;;;;;12.34;52.33;99941.66;688308;28;1374;-92
2023/12/31 01:36:53;;;;;;;2.60;1.90;;;;;;;12.41;52.38;99950.44;691106;28;1220;-92
2023/12/31 01:37:14;;;;;;;2.70;1.80;;;;;;;12.39;52.12;99954.75;688273;28;1284;-91
2023/12/31 01:37:38;;;;;;;2.47;1.70;;;;;;;12.31;51.91;99939.88;683242;29;1261;-92
2023/12/31 01:37:59;;;;;;;2.95;1.70;;;;;;;12.27;52.18;99951.19;684642;28;1241;-92
2023/12/31 01:38:19;;;;;;;2.42;1.52;;;;;;;12.21;52.16;99945.91;688179;28;1302;-92
2023/12/31 01:38:40;;;;;;;1.57;1.40;;;;;;;12.26;52.49;99959.91;686584;28;1375;-92
2023/12/31 01:39:01;;;;;;;2.15;1.50;;;;;;;12.20;52.60;99957.25;686800;28;1274;-91
2023/12/31 01:39:21;;;;;;;2.40;1.50;;;;;;;12.22;52.56;99947.66;688466;28;1199;-92
2023/12/31 01:39:42;;;;;;;2.63;1.60;;;;;;;12.27;52.33;99956.44;693928;28;1453;-91
2023/12/31 01:40:03;;;;;;;1.87;1.47;;;;;;;12.27;52.05;99959.06;688755;28;1705;-92
2023/12/31 01:40:24;;;;;;;1.85;1.50;;;;;;;12.29;52.55;99974.78;686899;28;1262;-92
2023/12/31 01:40:54;;;;;;;1.80;1.60;;;;;;;12.33;52.41;99966.06;688614;28;1165;-93
2023/12/31 01:41:14;;;;;;;2.00;1.77;;;;;;;12.33;52.53;99969.56;685672;28;1243;-92
2023/12/31 01:41:35;;;;;;;2.80;2.10;;;;;;;12.31;52.89;99958.19;683348;29;1149;-91